Time;durP1;ratioP1;P1;durP2;ratioP2;P2;SDS_P1;SDS_P2;PMS_P1;PMS_P2;Temp;Humidity;BMP_temperature;BMP_pressure;BME280_temperature;BME280_humidity;BME280_pressure;Samples;Min_cycle;Max_cycle;Signal;HPM_P1;HPM_P2
2022/08/27 00:01:09;;;;;;;29.85;8.38;;;;;;;23.90;100.00;107969.72;5093429;28;20179;-64
2022/08/27 00:03:37;;;;;;;37.88;8.93;;;;;;;23.82;100.00;99541.06;5093563;28;20281;-63
2022/08/27 00:06:05;;;;;;;41.75;8.30;;;;;;;23.81;100.00;95173.44;5093638;28;20260;-64
2022/08/27 00:08:32;;;;;;;53.85;8.48;;;;;;;23.90;100.00;97874.06;5093669;28;20188;-63
2022/08/27 00:11:00;;;;;;;34.13;8.63;;;;;;;23.96;100.00;102256.09;5093255;28;20243;-64
2022/08/27 00:13:27;;;;;;;37.58;8.93;;;;;;;23.98;100.00;105289.09;5093205;28;20185;-63
2022/08/27 00:15:54;;;;;;;41.22;8.57;;;;;;;23.92;100.00;112356.06;5093101;28;20200;-63
2022/08/27 00:18:21;;;;;;;43.47;9.80;;;;;;;23.86;100.00;109984.78;5093043;28;20176;-61
2022/08/27 00:20:48;;;;;;;36.92;8.05;;;;;;;23.91;100.00;107634.56;5093037;28;20271;-63
2022/08/27 00:23:15;;;;;;;33.97;9.02;;;;;;;23.92;100.00;108984.50;5093326;28;20188;-63
2022/08/27 00:25:42;;;;;;;45.00;8.27;;;;;;;24.03;100.00;118119.59;5093585;28;20563;-63
2022/08/27 00:28:10;;;;;;;36.72;8.55;;;;;;;24.00;100.00;103608.31;5093499;28;20256;-63
2022/08/27 00:30:38;;;;;;;46.38;8.30;;;;;;;23.86;100.00;108973.47;5093442;28;20697;-62
2022/08/27 00:33:05;;;;;;;32.45;8.10;;;;;;;23.76;100.00;97851.81;5093563;28;20595;-64
2022/08/27 00:35:32;;;;;;;29.52;8.18;;;;;;;23.54;100.00;83740.22;5093358;28;20580;-62
2022/08/27 00:38:00;;;;;;;31.90;7.82;;;;;;;23.67;100.00;83090.41;5093399;28;20555;-62
2022/08/27 00:40:27;;;;;;;32.88;8.45;;;;;;;23.66;100.00;76739.72;5092979;28;20187;-63
2022/08/27 00:42:54;;;;;;;34.28;8.13;;;;;;;23.63;100.00;74733.53;5093333;28;20235;-64
2022/08/27 00:45:24;;;;;;;41.67;9.00;;;;;;;23.53;100.00;76722.75;5092694;28;20234;-62
2022/08/27 00:47:54;;;;;;;36.35;7.90;;;;;;;23.56;100.00;73724.03;5093249;28;20562;-62
2022/08/27 00:50:31;;;;;;;19.95;8.20;;;;;;;23.58;100.00;68394.84;5091489;28;20771;-63
2022/08/27 00:53:01;;;;;;;33.67;8.48;;;;;;;23.52;100.00;69386.78;5092762;28;20187;-64
2022/08/27 00:55:32;;;;;;;52.10;9.60;;;;;;;23.59;100.00;72061.31;5092979;28;20192;-63
2022/08/27 00:58:04;;;;;;;33.50;8.82;;;;;;;23.58;100.00;73059.63;5092986;28;20668;-63
2022/08/27 01:00:32;;;;;;;51.13;8.77;;;;;;;23.56;100.00;76392.91;5092664;28;20220;-63
2022/08/27 01:02:59;;;;;;;35.65;9.05;;;;;;;23.62;100.00;72731.16;5092586;28;20210;-64
2022/08/27 01:05:28;;;;;;;36.17;8.88;;;;;;;23.60;100.00;73395.56;5092487;28;20184;-63
2022/08/27 01:08:02;;;;;;;35.00;9.00;;;;;;;23.63;100.00;74399.94;5092832;28;20202;-62
2022/08/27 01:10:29;;;;;;;35.85;9.23;;;;;;;23.59;100.00;76730.59;5092676;28;20243;-62
2022/08/27 01:12:57;;;;;;;38.55;9.02;;;;;;;23.50;100.00;75717.78;5092797;28;20567;-63
2022/08/27 01:15:27;;;;;;;41.72;8.85;;;;;;;23.64;100.00;79075.28;5092452;28;20646;-63
2022/08/27 01:17:57;;;;;;;52.65;9.82;;;;;;;23.64;100.00;84758.75;5093021;28;20187;-62
2022/08/27 01:20:28;;;;;;;44.88;8.57;;;;;;;23.66;100.00;89114.31;5093015;28;20635;-64
2022/08/27 01:23:04;;;;;;;42.15;8.55;;;;;;;23.63;100.00;91454.91;5092302;28;20187;-62
2022/08/27 01:25:33;;;;;;;41.05;8.85;;;;;;;23.53;100.00;87755.13;5092372;28;20183;-62
2022/08/27 01:28:02;;;;;;;41.17;9.52;;;;;;;23.32;100.00;75027.56;5092309;28;20219;-63
2022/08/27 01:30:31;;;;;;;47.45;9.75;;;;;;;23.48;100.00;72380.50;5092185;28;20199;-63
2022/08/27 01:32:58;;;;;;;43.53;9.77;;;;;;;23.49;100.00;74716.38;5092540;28;20195;-63
2022/08/27 01:35:25;;;;;;;47.63;9.40;;;;;;;23.48;100.00;72380.50;5092650;28;20223;-62
2022/08/27 01:37:54;;;;;;;26.15;8.82;;;;;;;23.41;100.00;66378.28;5092631;28;20191;-62
2022/08/27 01:40:22;;;;;;;42.05;9.50;;;;;;;23.47;100.00;57413.56;5092131;28;20187;-63
2022/08/27 01:42:53;;;;;;;42.85;8.77;;;;;;;23.38;100.00;54088.34;5092091;28;20180;-63
2022/08/27 01:45:23;;;;;;;40.47;9.50;;;;;;;23.32;100.00;57399.22;5091998;28;20327;-61
2022/08/27 01:47:50;;;;;;;35.67;8.82;;;;;;;23.15;100.00;56719.16;5092129;28;20204;-62
2022/08/27 01:50:20;;;;;;;36.15;9.98;;;;;;;23.06;100.00;50748.03;5091834;28;20204;-63
2022/08/27 01:52:47;;;;;;;45.60;9.20;;;;;;;23.09;100.00;48764.88;5092459;28;20194;-63
2022/08/27 01:55:17;;;;;;;39.80;8.75;;;;;;;22.86;100.00;44779.69;5092190;28;20252;-63
2022/08/27 01:57:44;;;;;;;40.58;8.65;;;;;;;22.86;100.00;40488.75;5091867;28;20184;-62
2022/08/27 02:00:16;;;;;;;32.72;9.32;;;;;;;22.98;100.00;40497.28;5092143;28;20193;-63
2022/08/27 02:02:43;;;;;;;35.42;8.68;;;;;;;22.90;100.00;36864.84;5091825;28;20184;-63
2022/08/27 02:05:11;;;;;;;60.85;8.77;;;;;;;23.07;100.00;37864.94;5091747;28;20176;-63
2022/08/27 02:07:39;;;;;;;36.97;8.90;;;;;;;23.08;100.00;42154.72;5091785;28;20188;-62
2022/08/27 02:10:09;;;;;;;44.42;9.23;;;;;;;23.13;100.00;41828.25;5091963;28;20667;-62
2022/08/27 02:12:36;;;;;;;34.85;8.63;;;;;;;22.99;100.00;38519.00;5091973;28;20194;-62
2022/08/27 02:15:04;;;;;;;35.35;8.65;;;;;;;23.05;100.00;38853.19;5091927;28;20190;-63
2022/08/27 02:17:32;;;;;;;32.58;9.13;;;;;;;23.02;100.00;38191.63;5091695;28;20237;-63
2022/08/27 02:19:59;;;;;;;32.85;8.90;;;;;;;23.06;100.00;34898.19;5091999;28;20180;-62
2022/08/27 02:22:26;;;;;;;38.25;9.50;;;;;;;23.14;100.00;33585.88;5090779;28;20184;-63
2022/08/27 02:24:53;;;;;;;37.35;9.85;;;;;;;23.22;100.00;32273.41;5091600;28;20275;-63
2022/08/27 02:27:20;;;;;;;33.47;9.95;;;;;;;23.21;100.00;36885.41;5091867;28;20184;-63
2022/08/27 02:29:48;;;;;;;29.13;8.77;;;;;;;23.07;100.00;34240.03;5095883;28;20598;-63
2022/08/27 02:32:15;;;;;;;31.55;9.15;;;;;;;22.85;100.00;36861.56;5095358;28;20195;-63
2022/08/27 02:34:44;;;;;;;32.45;10.07;;;;;;;22.51;100.00;23036.97;5095787;28;20192;-62
2022/08/27 02:37:11;;;;;;;33.92;10.15;;;;;;;22.51;100.00;22380.91;5095706;28;20198;-62
2022/08/27 02:39:38;;;;;;;36.85;9.55;;;;;;;22.66;100.00;23371.47;5095386;28;20184;-64
2022/08/27 02:42:05;;;;;;;27.08;10.13;;;;;;;22.66;100.00;24027.47;5095210;28;20185;-64
2022/08/27 02:44:34;;;;;;;39.55;10.48;;;;;;;22.79;100.00;23376.91;5095377;28;20188;-63
2022/08/27 02:47:02;;;;;;;32.60;10.10;;;;;;;22.81;100.00;26332.47;5095219;28;20187;-63
2022/08/27 02:49:29;;;;;;;36.17;10.05;;;;;;;22.76;100.00;26330.06;5095450;28;20604;-62
2022/08/27 02:51:57;;;;;;;29.50;9.60;;;;;;;22.84;100.00;26990.66;5095476;28;20208;-64
2022/08/27 02:54:26;;;;;;;40.40;9.43;;;;;;;22.83;100.00;28304.50;5095148;28;20188;-61
2022/08/27 02:56:54;;;;;;;34.90;10.75;;;;;;;22.96;100.00;28640.16;5095035;28;20184;-61
2022/08/27 02:59:21;;;;;;;41.83;11.20;;;;;;;22.99;100.00;31272.63;5095022;28;20190;-63
2022/08/27 03:01:49;;;;;;;41.22;10.38;;;;;;;22.98;100.00;35552.34;5094961;28;20181;-65
2022/08/27 03:04:17;;;;;;;39.08;10.70;;;;;;;23.01;100.00;36872.34;5094975;28;20198;-64
2022/08/27 03:06:44;;;;;;;34.85;10.57;;;;;;;22.98;100.00;35222.63;5094876;28;20184;-64
2022/08/27 03:09:13;;;;;;;36.88;10.80;;;;;;;22.98;100.00;34893.22;5094810;28;20271;-64
2022/08/27 03:11:40;;;;;;;39.33;9.57;;;;;;;23.02;100.00;37532.25;5094966;28;20211;-64
2022/08/27 03:14:08;;;;;;;32.20;9.77;;;;;;;22.84;100.00;40817.19;5094970;28;20192;-64
2022/08/27 03:16:37;;;;;;;33.03;10.00;;;;;;;23.03;100.00;44462.63;5095056;28;20278;-63
2022/08/27 03:19:05;;;;;;;44.45;11.55;;;;;;;22.76;100.00;53369.69;5095125;28;20184;-63
2022/08/27 03:21:33;;;;;;;45.13;11.70;;;;;;;23.12;100.00;58706.34;5094851;28;20554;-62
2022/08/27 03:24:01;;;;;;;30.15;10.32;;;;;;;23.14;100.00;62360.59;5094995;28;20222;-63
2022/08/27 03:26:30;;;;;;;38.90;11.75;;;;;;;23.08;100.00;69003.13;5094738;28;20199;-64
2022/08/27 03:28:57;;;;;;;46.78;12.48;;;;;;;23.13;100.00;65682.63;5094468;28;20241;-63
2022/08/27 03:31:26;;;;;;;35.70;12.30;;;;;;;23.15;100.00;70342.84;5094335;28;20204;-63
2022/08/27 03:33:55;;;;;;;39.08;11.70;;;;;;;23.13;100.00;67678.06;5094577;28;20180;-63
2022/08/27 03:36:21;;;;;;;28.17;11.15;;;;;;;23.08;100.00;67339.66;5094676;28;20206;-63
2022/08/27 03:38:48;;;;;;;37.30;11.80;;;;;;;23.10;100.00;69671.09;5094100;28;20184;-63
2022/08/27 03:41:16;;;;;;;42.13;12.05;;;;;;;23.09;100.00;68670.94;5094144;28;20184;-61
2022/08/27 03:43:46;;;;;;;46.67;11.98;;;;;;;23.04;100.00;68998.38;5094746;28;20609;-64
2022/08/27 03:46:13;;;;;;;39.30;12.27;;;;;;;23.02;100.00;68330.63;5094493;28;20307;-63
2022/08/27 03:48:40;;;;;;;37.28;11.45;;;;;;;23.10;100.00;72334.88;5094064;28;20180;-63
2022/08/27 03:51:09;;;;;;;35.72;12.05;;;;;;;23.12;100.00;71338.16;5094179;28;20207;-63
2022/08/27 03:53:38;;;;;;;41.00;12.02;;;;;;;23.10;100.00;69671.09;5094173;28;20677;-62
2022/08/27 03:56:06;;;;;;;29.35;11.52;;;;;;;23.10;100.00;67009.34;5094106;28;20194;-62
2022/08/27 03:58:33;;;;;;;37.58;11.65;;;;;;;23.14;100.00;66016.25;5093839;28;20245;-63
2022/08/27 04:01:01;;;;;;;42.70;12.15;;;;;;;23.21;100.00;70349.44;5093904;28;20180;-62
2022/08/27 04:03:28;;;;;;;36.20;12.25;;;;;;;23.15;100.00;74340.44;5093998;28;20199;-62
2022/08/27 04:05:56;;;;;;;43.17;12.95;;;;;;;23.23;100.00;77685.88;5093630;28;20191;-63
2022/08/27 04:08:24;;;;;;;40.70;12.68;;;;;;;23.21;100.00;83694.78;5093580;28;20188;-64
2022/08/27 04:10:53;;;;;;;53.30;13.93;;;;;;;23.38;100.00;92756.91;5093794;28;20207;-63
2022/08/27 04:13:21;;;;;;;42.80;13.13;;;;;;;23.59;100.00;114318.56;5093390;28;20187;-63
2022/08/27 04:15:51;;;;;;;48.33;13.10;;;;;;;23.66;100.00;123793.75;5093474;28;20180;-63
2022/08/27 04:18:19;;;;;;;54.17;14.10;;;;;;;23.91;100.00;148537.34;5093694;28;20275;-63
2022/08/27 04:20:48;;;;;;;50.53;12.13;;;;;;;23.78;100.00;152018.50;5093888;28;20188;-63
2022/08/27 04:23:15;;;;;;;49.38;12.07;;;;;;;24.31;100.00;152151.34;5093268;28;20183;-62
2022/08/27 04:25:43;;;;;;;44.60;11.25;;;;;;;24.49;100.00;152197.25;5093349;28;20188;-62
2022/08/27 04:28:12;;;;;;;63.33;14.85;;;;;;;24.74;100.00;152259.88;5093201;28;20188;-63
2022/08/27 04:30:39;;;;;;;132.85;44.08;;;;;;;24.93;100.00;152309.72;5093206;28;20204;-63
2022/08/27 04:33:06;;;;;;;205.13;71.78;;;;;;;24.97;100.00;152318.66;5093515;28;20249;-63
2022/08/27 04:35:35;;;;;;;89.28;25.50;;;;;;;25.01;100.00;152328.88;5093426;28;20623;-64
2022/08/27 04:38:03;;;;;;;67.68;13.65;;;;;;;25.03;100.00;152334.00;5093045;28;20193;-63
2022/08/27 04:43:12;;;;;;;36.30;12.18;;;;;;;25.20;100.00;152377.44;5092873;28;20286;-63
2022/08/27 04:45:43;;;;;;;65.53;13.15;;;;;;;25.15;100.00;152364.66;5092822;28;20231;-64
2022/08/27 04:48:10;;;;;;;57.85;13.05;;;;;;;25.14;100.00;152360.81;5093174;28;20191;-64
2022/08/27 04:50:41;;;;;;;81.32;21.38;;;;;;;25.18;100.00;152372.31;5092595;28;20214;-64
2022/08/27 04:53:08;;;;;;;73.07;21.38;;;;;;;25.35;100.00;152414.47;5093022;28;20187;-64
2022/08/27 04:55:41;;;;;;;80.10;20.85;;;;;;;25.53;100.00;152460.53;5092883;28;20245;-64
2022/08/27 04:58:08;;;;;;;76.35;16.00;;;;;;;25.72;100.00;152507.81;5091851;28;20191;-63
2022/08/27 05:00:41;;;;;;;95.85;19.70;;;;;;;25.78;100.00;152524.44;5091849;28;20188;-63
2022/08/27 05:03:08;;;;;;;74.18;18.42;;;;;;;25.68;100.00;152498.84;5092722;28;20181;-63
2022/08/27 05:05:35;;;;;;;58.00;18.35;;;;;;;25.62;100.00;152482.28;5092973;28;20649;-64
2022/08/27 05:08:05;;;;;;;60.75;17.52;;;;;;;25.65;100.00;152491.22;5092535;28;20188;-63
2022/08/27 05:10:38;;;;;;;49.92;17.35;;;;;;;25.65;100.00;152489.91;5092370;28;20282;-63
2022/08/27 05:13:05;;;;;;;42.13;16.55;;;;;;;25.80;100.00;152528.28;5092483;28;20184;-64
2022/08/27 05:15:32;;;;;;;49.38;16.27;;;;;;;25.97;100.00;152570.47;5092764;28;20265;-64
2022/08/27 05:17:59;;;;;;;50.63;16.38;;;;;;;25.92;100.00;152558.97;5092839;28;20184;-65
2022/08/27 05:20:26;;;;;;;46.55;16.70;;;;;;;26.05;100.00;152590.91;5092750;28;20630;-64
2022/08/27 05:22:53;;;;;;;55.45;16.52;;;;;;;25.75;100.00;152516.78;5092353;28;20191;-63
2022/08/27 05:25:22;;;;;;;52.65;16.58;;;;;;;25.96;100.00;152567.91;5092611;28;20573;-64
2022/08/27 05:27:49;;;;;;;44.70;14.77;;;;;;;25.89;100.00;152552.53;5092241;28;20188;-64
2022/08/27 05:30:16;;;;;;;67.10;16.63;;;;;;;26.05;100.00;152590.91;5092522;28;20187;-63
2022/08/27 05:32:43;;;;;;;55.45;15.82;;;;;;;26.32;100.00;152659.97;5091052;28;20220;-63
2022/08/27 05:35:10;;;;;;;59.03;17.13;;;;;;;26.45;100.00;152693.22;5092116;28;20209;-64
2022/08/27 05:37:37;;;;;;;40.88;16.27;;;;;;;26.32;100.00;152661.25;5092446;28;20207;-63
2022/08/27 05:40:06;;;;;;;75.28;18.17;;;;;;;26.44;100.00;152689.41;5092245;28;20184;-63
2022/08/27 05:42:34;;;;;;;64.00;17.20;;;;;;;26.36;100.00;152670.19;5092539;28;20555;-64
2022/08/27 05:45:01;;;;;;;72.88;18.00;;;;;;;26.60;100.00;152731.59;5091859;28;20239;-64
2022/08/27 05:47:28;;;;;;;76.53;17.30;;;;;;;26.63;100.00;152739.25;5092060;28;20192;-64
2022/08/27 05:49:55;;;;;;;66.72;17.02;;;;;;;26.85;100.00;152793.03;5092028;28;20195;-63
2022/08/27 05:52:22;;;;;;;55.95;16.10;;;;;;;26.86;100.00;152795.59;5091807;28;20208;-65
2022/08/27 05:54:49;;;;;;;74.88;16.13;;;;;;;26.89;100.00;152804.53;5091231;28;20215;-64
2022/08/27 05:57:16;;;;;;;64.78;16.65;;;;;;;27.08;100.00;152853.13;5092312;28;20184;-65
2022/08/27 06:02:28;;;;;;;65.07;14.57;;;;;;;28.32;100.00;153166.75;5093236;28;20183;-65
2022/08/27 06:04:57;;;;;;;55.67;13.90;;;;;;;28.62;100.00;153242.28;5096070;28;20195;-64
2022/08/27 06:07:24;;;;;;;69.05;15.27;;;;;;;28.65;100.00;153248.66;5096433;28;20190;-64
2022/08/27 06:09:50;;;;;;;75.25;14.52;;;;;;;28.57;100.00;153230.75;5096342;28;20631;-63
2022/08/27 06:12:17;;;;;;;76.30;13.98;;;;;;;28.72;100.00;153266.66;5096203;28;20732;-65
2022/08/27 06:14:46;;;;;;;84.70;15.27;;;;;;;28.98;100.00;153334.50;5096008;28;20184;-64
2022/08/27 06:17:13;;;;;;;62.67;19.98;;;;;;;28.84;100.00;153298.69;5096088;28;20639;-64
2022/08/27 06:19:41;;;;;;;56.72;22.60;;;;;;;28.72;100.00;153267.94;5095997;28;20188;-65
2022/08/27 06:22:08;;;;;;;66.40;23.17;;;;;;;28.95;100.00;153326.81;5095923;28;20220;-63
2022/08/27 06:24:35;;;;;;;62.42;21.90;;;;;;;28.86;100.00;153302.50;5096332;28;20188;-64
2022/08/27 06:27:02;;;;;;;63.67;20.10;;;;;;;29.84;100.00;153551.03;5096027;28;20180;-65
2022/08/27 06:29:28;;;;;;;57.22;20.75;;;;;;;29.38;100.00;153435.75;5095790;28;20191;-65
2022/08/27 06:31:57;;;;;;;59.28;23.75;;;;;;;30.03;100.00;153598.53;5094378;28;20234;-65
2022/08/27 06:34:24;;;;;;;70.28;22.67;;;;;;;30.14;100.00;153626.69;5095930;28;20558;-64
2022/08/27 06:36:52;;;;;;;66.57;21.70;;;;;;;29.91;100.00;153569.06;5095775;28;20585;-65
2022/08/27 06:39:19;;;;;;;69.53;15.02;;;;;;;30.10;100.00;153617.72;5095734;28;20202;-63
2022/08/27 06:41:49;;;;;;;80.32;12.77;;;;;;;30.51;100.00;153720.34;5095947;28;20524;-63
2022/08/27 06:44:16;;;;;;;67.70;12.20;;;;;;;31.07;100.00;153863.94;5095534;28;20536;-64
2022/08/27 06:46:44;;;;;;;76.25;11.90;;;;;;;31.52;100.00;153976.81;5095353;28;20180;-63
2022/08/27 06:49:13;;;;;;;66.30;9.90;;;;;;;31.86;100.00;154064.13;5095256;28;20188;-63
2022/08/27 06:51:44;;;;;;;75.68;11.27;;;;;;;32.09;99.89;154123.16;5095237;28;20215;-64
2022/08/27 06:54:13;;;;;;;77.53;11.23;;;;;;;32.44;97.60;154211.69;5095462;28;20280;-63
2022/08/27 06:56:40;;;;;;;86.03;11.32;;;;;;;32.69;93.01;154274.63;5095912;28;20528;-64
2022/08/27 06:59:10;;;;;;;63.10;10.25;;;;;;;33.07;88.13;154372.19;5096035;28;20194;-63
2022/08/27 07:01:40;;;;;;;55.40;9.70;;;;;;;33.41;88.20;154456.97;5095484;28;20198;-64
2022/08/27 07:04:09;;;;;;;69.85;10.93;;;;;;;33.63;83.25;154512.19;5095731;28;20208;-63
2022/08/27 07:06:38;;;;;;;61.03;9.90;;;;;;;33.61;84.01;154508.31;5095054;28;20275;-63
2022/08/27 07:09:06;;;;;;;60.08;9.68;;;;;;;33.52;80.63;154485.25;5094862;28;20280;-63
2022/08/27 07:11:34;;;;;;;73.13;9.02;;;;;;;33.42;80.86;154459.53;5094951;28;20207;-64
2022/08/27 07:14:01;;;;;;;66.05;10.13;;;;;;;33.59;79.70;154501.91;5093587;28;20185;-64
2022/08/27 07:16:29;;;;;;;76.38;10.13;;;;;;;33.73;76.30;154539.22;5095296;28;20288;-62
2022/08/27 07:18:59;;;;;;;78.03;10.23;;;;;;;33.80;75.08;154557.19;5095049;28;20271;-63
2022/08/27 07:21:27;;;;;;;57.15;9.68;;;;;;;33.82;75.95;154561.06;5095327;28;20676;-62
2022/08/27 07:23:57;;;;;;;70.85;9.80;;;;;;;33.96;72.22;154598.28;5094916;28;20251;-64
2022/08/27 07:26:25;;;;;;;54.88;9.65;;;;;;;34.20;68.88;154657.44;5094920;28;20184;-64
2022/08/27 07:28:52;;;;;;;43.97;9.32;;;;;;;34.23;66.69;154665.13;5094470;28;20184;-64
2022/08/27 07:31:21;;;;;;;51.45;9.48;;;;;;;34.09;67.52;154630.38;5094279;28;20184;-64
2022/08/27 07:33:48;;;;;;;58.20;10.15;;;;;;;33.99;68.17;154603.44;5094368;28;20184;-64
2022/08/27 07:36:16;;;;;;;79.50;9.95;;;;;;;34.19;68.97;154654.84;5094294;28;20192;-65
2022/08/27 07:38:43;;;;;;;63.70;9.23;;;;;;;34.47;67.33;154725.47;5094932;28;20561;-64
2022/08/27 07:41:13;;;;;;;70.10;9.40;;;;;;;34.75;65.96;154798.81;5094696;28;20180;-64
2022/08/27 07:46:24;;;;;;;73.18;10.07;;;;;;;34.82;63.33;154815.50;5094142;28;20226;-64
2022/08/27 07:48:54;;;;;;;57.63;9.63;;;;;;;35.18;65.75;154906.81;5094234;28;20194;-63
2022/08/27 07:51:22;;;;;;;58.38;9.32;;;;;;;35.27;61.97;154929.91;5092881;28;20192;-63
2022/08/27 07:53:49;;;;;;;61.13;9.63;;;;;;;35.33;58.56;154944.06;5093928;28;20184;-64
2022/08/27 07:56:18;;;;;;;52.17;8.35;;;;;;;35.23;57.64;154920.91;5094212;28;20634;-63
2022/08/27 07:58:45;;;;;;;55.13;9.75;;;;;;;35.10;55.80;154886.16;5093810;28;20274;-64
2022/08/27 08:01:13;;;;;;;48.47;8.93;;;;;;;35.37;54.29;154955.63;5092713;28;20181;-63
2022/08/27 08:03:40;;;;;;;50.60;8.93;;;;;;;35.60;55.89;155014.78;5094155;28;20586;-65
2022/08/27 08:06:10;;;;;;;48.65;8.02;;;;;;;35.85;54.74;155077.81;5094572;28;20630;-64
2022/08/27 08:08:38;;;;;;;44.05;8.23;;;;;;;35.83;52.84;155071.34;5094140;28;20188;-63
2022/08/27 08:11:06;;;;;;;38.63;7.80;;;;;;;35.81;51.85;155066.25;5093963;28;20188;-64
2022/08/27 08:13:35;;;;;;;45.78;7.93;;;;;;;35.93;51.56;155097.09;5093508;28;20212;-63
2022/08/27 08:16:02;;;;;;;49.20;8.65;;;;;;;36.17;50.66;155158.84;5093669;28;20190;-63
2022/08/27 08:18:29;;;;;;;46.88;8.52;;;;;;;36.21;48.82;155169.13;5092773;28;20184;-64
2022/08/27 08:21:00;;;;;;;59.47;9.00;;;;;;;36.54;51.63;155252.72;5093430;28;20194;-64
2022/08/27 08:23:28;;;;;;;64.78;9.90;;;;;;;36.04;47.32;155126.66;5093345;28;20188;-63
2022/08/27 08:25:56;;;;;;;53.22;8.25;;;;;;;36.24;46.81;155176.88;5092354;28;20180;-64
2022/08/27 08:28:23;;;;;;;56.45;8.57;;;;;;;36.14;45.58;155152.44;5093631;28;20180;-65
2022/08/27 08:30:53;;;;;;;72.38;8.90;;;;;;;36.68;44.75;155288.78;5093214;28;20184;-65
2022/08/27 08:33:20;;;;;;;46.70;8.02;;;;;;;36.56;43.46;155259.19;5093511;28;20228;-63
2022/08/27 08:35:48;;;;;;;50.90;7.93;;;;;;;36.44;43.18;155228.31;5093075;28;20187;-64
2022/08/27 08:38:15;;;;;;;65.97;9.30;;;;;;;36.56;47.35;155259.19;5093175;28;20192;-63
2022/08/27 08:40:47;;;;;;;60.85;9.15;;;;;;;36.96;45.60;155360.81;5093028;28;20184;-63
2022/08/27 08:43:26;;;;;;;62.65;9.02;;;;;;;37.04;43.07;155380.16;5093230;28;20180;-65
2022/08/27 08:45:57;;;;;;;57.95;8.20;;;;;;;37.33;44.82;155453.53;5092833;28;20231;-64
2022/08/27 08:48:28;;;;;;;39.10;8.35;;;;;;;37.34;43.63;155457.41;5093190;28;20635;-65
2022/08/27 08:51:02;;;;;;;49.25;9.20;;;;;;;37.08;46.01;155389.19;5092093;28;20655;-64
2022/08/27 08:53:38;;;;;;;46.92;8.80;;;;;;;37.10;43.17;155395.63;5092685;28;20223;-63
2022/08/27 08:56:10;;;;;;;49.85;7.90;;;;;;;37.25;43.99;155434.25;5092691;28;20195;-64
2022/08/27 08:58:43;;;;;;;53.25;8.32;;;;;;;37.34;42.04;155457.41;5093057;28;20188;-64
2022/08/27 09:01:15;;;;;;;56.72;8.57;;;;;;;37.10;43.94;155394.31;5092552;28;20199;-64
2022/08/27 09:03:47;;;;;;;51.78;8.57;;;;;;;36.95;41.06;155357.00;5091471;28;20184;-64
2022/08/27 09:06:19;;;;;;;44.92;8.68;;;;;;;36.68;41.49;155288.78;5092956;28;20272;-64
2022/08/27 09:08:47;;;;;;;59.67;9.38;;;;;;;36.60;41.26;155269.50;5092778;28;20184;-64
2022/08/27 09:11:24;;;;;;;55.83;8.23;;;;;;;36.24;42.28;155175.59;5092456;28;20188;-64
2022/08/27 09:13:56;;;;;;;50.97;7.75;;;;;;;35.79;42.54;155061.06;5092360;28;20213;-65
2022/08/27 09:16:24;;;;;;;41.25;8.10;;;;;;;35.27;43.74;154931.19;5092831;28;20604;-64
2022/08/27 09:18:51;;;;;;;45.67;9.15;;;;;;;34.85;44.06;154824.47;5092798;28;20623;-63
2022/08/27 09:21:29;;;;;;;47.03;7.75;;;;;;;35.80;41.03;155064.94;5092590;28;20183;-64
2022/08/27 09:24:05;;;;;;;38.80;8.00;;;;;;;36.06;40.62;155130.53;5092461;28;20691;-64
2022/08/27 09:26:35;;;;;;;49.17;8.57;;;;;;;36.03;42.19;155122.81;5092898;28;20187;-64
2022/08/27 09:29:18;;;;;;;61.00;8.82;;;;;;;35.61;47.19;155016.03;5092903;28;20180;-63
2022/08/27 09:31:52;;;;;;;63.90;9.20;;;;;;;35.11;49.85;154888.72;5092282;28;20204;-62
2022/08/27 09:34:19;;;;;;;50.13;7.85;;;;;;;35.33;48.23;154945.34;5092171;28;20188;-63
2022/08/27 09:36:58;;;;;;;47.10;8.68;;;;;;;35.15;53.41;154900.34;5091990;28;20180;-63
2022/08/27 09:39:34;;;;;;;54.25;9.32;;;;;;;34.57;52.00;154752.50;5092763;28;20187;-64
2022/08/27 09:42:03;;;;;;;37.97;7.82;;;;;;;34.62;50.89;154765.34;5092076;28;20230;-63
2022/08/27 09:44:31;;;;;;;53.80;8.93;;;;;;;34.57;53.86;154752.50;5091990;28;20184;-65
2022/08/27 09:47:03;;;;;;;57.25;8.90;;;;;;;33.85;57.05;154570.03;5092259;28;20659;-64
2022/08/27 09:49:33;;;;;;;61.13;8.93;;;;;;;33.72;55.55;154535.34;5091883;28;20642;-63
2022/08/27 09:52:00;;;;;;;54.75;8.32;;;;;;;33.69;57.14;154527.66;5091887;28;20219;-65
2022/08/27 09:54:39;;;;;;;48.22;8.60;;;;;;;33.63;57.65;154513.47;5091926;28;20204;-63
2022/08/27 09:57:07;;;;;;;32.08;7.22;;;;;;;33.66;59.51;154519.91;5091810;28;20194;-64
2022/08/27 09:59:37;;;;;;;39.25;7.75;;;;;;;33.85;56.74;154570.03;5092496;28;20548;-63
2022/08/27 10:02:14;;;;;;;39.40;7.78;;;;;;;33.50;57.39;154480.06;5092227;28;20192;-64
2022/08/27 10:04:44;;;;;;;58.15;8.07;;;;;;;32.91;61.97;154329.81;5092290;28;20374;-64
2022/08/27 10:07:31;;;;;;;47.65;8.60;;;;;;;32.97;62.67;154346.47;5092176;28;20187;-63
2022/08/27 10:10:03;;;;;;;41.10;8.10;;;;;;;33.08;59.31;154373.47;5089333;28;20206;-64
2022/08/27 10:12:36;;;;;;;43.50;7.53;;;;;;;32.72;58.64;154281.06;5091983;28;20215;-63
2022/08/27 10:15:05;;;;;;;36.53;7.80;;;;;;;33.10;57.38;154377.34;5092188;28;20188;-63
2022/08/27 10:17:45;;;;;;;57.53;8.85;;;;;;;33.24;58.09;154413.31;5092601;28;20210;-64
2022/08/27 10:20:18;;;;;;;34.28;6.97;;;;;;;33.20;58.63;154403.03;5092192;28;20660;-63
2022/08/27 10:22:55;;;;;;;55.80;8.45;;;;;;;33.34;60.38;154439.00;5091651;28;20180;-64
2022/08/27 10:25:33;;;;;;;50.15;8.20;;;;;;;33.19;58.10;154400.44;5091784;28;20278;-63
2022/08/27 10:28:11;;;;;;;40.63;8.10;;;;;;;33.01;59.56;154356.81;5092059;28;20188;-63
2022/08/27 10:30:55;;;;;;;45.40;7.80;;;;;;;32.80;59.15;154302.88;5092116;28;20187;-63
2022/08/27 10:33:30;;;;;;;34.95;6.90;;;;;;;32.35;59.98;154187.31;5090986;28;20226;-63
2022/08/27 10:36:05;;;;;;;45.88;7.40;;;;;;;32.48;59.35;154221.97;5091898;28;20188;-63
2022/08/27 10:38:38;;;;;;;40.85;8.30;;;;;;;33.09;59.39;154376.06;5091678;28;20190;-63
2022/08/27 10:41:15;;;;;;;40.85;7.57;;;;;;;33.28;56.73;154423.56;5091988;28;20188;-63
2022/08/27 10:44:05;;;;;;;45.00;7.78;;;;;;;33.32;57.07;154435.13;5091798;28;20533;-63
2022/08/27 10:46:49;;;;;;;37.53;7.18;;;;;;;33.42;55.67;154459.53;5091642;28;20716;-64
2022/08/27 10:49:26;;;;;;;39.67;7.47;;;;;;;33.28;56.32;154423.56;5093264;28;20188;-64
2022/08/27 10:52:01;;;;;;;42.50;8.10;;;;;;;33.16;58.11;154392.75;5095352;28;20213;-63
2022/08/27 10:54:36;;;;;;;45.05;7.85;;;;;;;33.28;56.83;154423.56;5095411;28;20180;-62
2022/08/27 10:57:08;;;;;;;52.53;8.00;;;;;;;33.32;57.25;154435.13;5095065;28;20184;-64
2022/08/27 10:59:43;;;;;;;46.95;7.95;;;;;;;33.40;56.31;154454.38;5096020;28;20631;-63
2022/08/27 11:02:22;;;;;;;46.72;8.20;;;;;;;33.16;58.18;154394.06;5095087;28;20192;-63
2022/08/27 11:04:57;;;;;;;39.17;7.50;;;;;;;33.19;57.30;154401.75;5095235;28;20184;-63
2022/08/27 11:07:29;;;;;;;37.38;7.45;;;;;;;33.03;58.76;154361.91;5095143;28;20180;-63
2022/08/27 11:09:59;;;;;;;38.25;7.60;;;;;;;32.96;58.01;154342.66;5095350;28;20195;-63
2022/08/27 11:12:29;;;;;;;36.30;7.85;;;;;;;32.84;58.52;154311.88;5095076;28;20176;-63
2022/08/27 11:15:00;;;;;;;43.47;8.27;;;;;;;33.10;59.76;154378.56;5095018;28;20199;-63
2022/08/27 11:17:32;;;;;;;33.95;6.75;;;;;;;33.53;56.95;154487.75;5095007;28;20184;-63
2022/08/27 11:20:07;;;;;;;37.22;7.75;;;;;;;33.70;55.80;154531.47;5094695;28;20184;-63
2022/08/27 11:22:38;;;;;;;48.55;7.85;;;;;;;34.01;55.03;154608.53;5094829;28;20184;-65
2022/08/27 11:25:14;;;;;;;39.63;8.05;;;;;;;34.06;53.37;154621.41;5094888;28;20270;-63
2022/08/27 11:27:42;;;;;;;45.88;8.35;;;;;;;33.97;54.68;154600.84;5095305;28;20187;-63
2022/08/27 11:30:16;;;;;;;44.00;7.05;;;;;;;33.29;58.29;154427.44;5094996;28;20282;-63